createdAt,value
2023-02-04T00:00:27.395Z,4.20
2023-02-04T00:03:16.269Z,4.05
2023-02-04T00:05:43.939Z,4.30
2023-02-04T00:08:11.596Z,4.07
2023-02-04T00:10:39.402Z,3.08
2023-02-04T00:13:06.868Z,3.80
2023-02-04T00:15:34.066Z,4.03
2023-02-04T00:18:03.183Z,4.22
2023-02-04T00:20:30.678Z,3.60
2023-02-04T00:22:58.343Z,3.28
2023-02-04T00:25:25.738Z,3.75
2023-02-04T00:27:53.124Z,3.72
2023-02-04T00:30:20.395Z,4.00
2023-02-04T00:32:47.807Z,3.78
2023-02-04T00:35:14.999Z,3.28
2023-02-04T00:37:42.267Z,3.50
2023-02-04T00:40:10.630Z,1.90
2023-02-04T00:42:39.618Z,2.45
2023-02-04T00:45:07.275Z,2.20
2023-02-04T00:47:35.127Z,3.20
2023-02-04T00:50:04.398Z,2.90
2023-02-04T00:52:31.880Z,3.20
2023-02-04T00:54:59.107Z,2.90
2023-02-04T00:57:26.453Z,3.17
2023-02-04T00:59:53.679Z,2.20
2023-02-04T01:02:21.285Z,2.30
2023-02-04T01:04:48.448Z,2.70
2023-02-04T01:07:18.593Z,1.80
2023-02-04T01:09:45.764Z,2.33
2023-02-04T01:12:13.103Z,2.70
2023-02-04T01:14:40.231Z,2.58
2023-02-04T01:17:07.827Z,2.28
2023-02-04T01:19:35.226Z,2.30
2023-02-04T01:22:03.089Z,2.20
2023-02-04T01:24:30.298Z,2.15
2023-02-04T01:27:20.783Z,2.20
2023-02-04T01:29:48.395Z,2.45
2023-02-04T01:32:15.708Z,2.35
2023-02-04T01:34:42.931Z,2.40
2023-02-04T01:37:10.332Z,2.65
2023-02-04T01:39:37.482Z,2.55
2023-02-04T01:42:05.524Z,2.17
2023-02-04T01:44:32.968Z,2.67
2023-02-04T01:47:00.843Z,2.13
2023-02-04T01:49:29.125Z,2.75
2023-02-04T01:51:57.220Z,2.25
2023-02-04T01:54:26.790Z,2.63
2023-02-04T01:56:55.416Z,2.55
2023-02-04T01:59:24.976Z,2.50
2023-02-04T02:01:54.112Z,2.03
2023-02-04T02:04:31.518Z,1.80
2023-02-04T02:07:06.216Z,1.80
2023-02-04T02:09:34.431Z,1.40
2023-02-04T02:12:04.250Z,1.30
2023-02-04T02:14:32.270Z,1.50
2023-02-04T02:16:59.808Z,1.25
2023-02-04T02:19:36.525Z,1.55
2023-02-04T02:22:28.683Z,1.23
2023-02-04T02:24:55.831Z,1.80
2023-02-04T02:27:23.809Z,1.50
2023-02-04T02:29:51.811Z,1.42
2023-02-04T02:32:20.017Z,1.30
2023-02-04T02:34:47.455Z,1.40
2023-02-04T02:37:14.995Z,1.63
2023-02-04T02:39:45.820Z,1.13
2023-02-04T02:42:19.353Z,1.05
2023-02-04T02:44:48.449Z,1.42
2023-02-04T02:47:21.256Z,1.83
2023-02-04T02:52:23.162Z,1.52
2023-02-04T02:54:50.622Z,2.00
2023-02-04T02:57:23.827Z,1.42
2023-02-04T02:59:50.999Z,1.80
2023-02-04T03:02:23.547Z,1.50
2023-02-04T03:05:00.791Z,1.15
2023-02-04T03:07:32.204Z,1.23
2023-02-04T03:09:59.791Z,0.98
2023-02-04T03:12:27.419Z,1.25
2023-02-04T03:14:55.556Z,0.90
2023-02-04T03:17:22.900Z,0.98
2023-02-04T03:19:50.278Z,1.10
2023-02-04T03:22:18.082Z,1.23
2023-02-04T03:24:46.297Z,0.77
2023-02-04T03:27:15.981Z,1.15
2023-02-04T03:29:45.275Z,1.60
2023-02-04T03:32:12.799Z,1.17
2023-02-04T03:34:39.887Z,1.23
2023-02-04T03:37:08.252Z,0.35
2023-02-04T03:39:35.442Z,1.30
2023-02-04T03:42:04.232Z,1.17
2023-02-04T03:44:31.483Z,1.30
2023-02-04T03:47:00.082Z,1.00
2023-02-04T03:49:28.445Z,1.20
2023-02-04T03:51:55.771Z,1.20
2023-02-04T03:54:23.191Z,1.10
2023-02-04T03:56:50.551Z,0.80
2023-02-04T03:59:17.976Z,1.25
2023-02-04T04:01:45.481Z,1.02
2023-02-04T04:04:12.679Z,1.20
2023-02-04T04:06:40.988Z,0.90
2023-02-04T04:09:08.218Z,1.30
2023-02-04T04:11:35.693Z,1.20
2023-02-04T04:14:03.099Z,0.93
2023-02-04T04:16:30.605Z,0.90
2023-02-04T04:18:57.703Z,0.88
2023-02-04T04:21:25.084Z,1.08
2023-02-04T04:23:52.140Z,1.00
2023-02-04T04:26:20.041Z,0.90
2023-02-04T04:28:47.171Z,1.10
2023-02-04T04:31:14.590Z,1.00
2023-02-04T04:33:41.776Z,1.10
2023-02-04T04:36:09.932Z,1.10
2023-02-04T04:38:37.061Z,0.75
2023-02-04T04:41:04.687Z,0.20
2023-02-04T04:43:31.817Z,0.80
2023-02-04T04:45:59.379Z,1.23
2023-02-04T04:48:26.418Z,1.60
2023-02-04T04:50:53.828Z,1.70
2023-02-04T04:53:20.872Z,1.90
2023-02-04T04:55:48.353Z,2.70
2023-02-04T04:58:15.578Z,3.35
2023-02-04T05:00:42.994Z,3.30
2023-02-04T05:03:10.131Z,2.58
2023-02-04T05:05:41.040Z,3.50
2023-02-04T05:08:12.899Z,2.65
2023-02-04T05:10:41.212Z,2.58
2023-02-04T05:13:08.463Z,2.53
2023-02-04T05:15:36.146Z,2.28
2023-02-04T05:18:03.764Z,2.92
2023-02-04T05:20:31.645Z,3.05
2023-02-04T05:23:01.143Z,1.45
2023-02-04T05:25:29.174Z,2.53
2023-02-04T05:27:56.260Z,1.85
2023-02-04T05:30:23.808Z,2.03
2023-02-04T05:32:50.962Z,2.45
2023-02-04T05:35:18.576Z,1.05
2023-02-04T05:37:45.670Z,2.22
2023-02-04T05:40:13.783Z,2.42
2023-02-04T05:42:41.880Z,2.30
2023-02-04T05:45:16.570Z,2.13
2023-02-04T05:47:43.752Z,2.85
2023-02-04T05:50:11.427Z,2.78
2023-02-04T05:52:38.660Z,1.35
2023-02-04T05:55:07.412Z,2.17
2023-02-04T05:57:34.550Z,1.77
2023-02-04T06:00:04.109Z,1.88
2023-02-04T06:02:39.272Z,2.30
2023-02-04T06:05:07.203Z,1.52
2023-02-04T06:07:34.276Z,2.00
2023-02-04T06:10:03.474Z,2.13
2023-02-04T06:12:31.134Z,2.13
2023-02-04T06:14:58.620Z,2.15
2023-02-04T06:17:25.704Z,2.33
2023-02-04T06:19:53.153Z,2.55
2023-02-04T06:22:20.328Z,2.22
2023-02-04T06:24:47.799Z,1.63
2023-02-04T06:27:23.088Z,2.03
2023-02-04T06:29:52.880Z,1.13
2023-02-04T06:32:21.456Z,2.00
2023-02-04T06:34:49.364Z,2.10
2023-02-04T06:37:17.121Z,1.88
2023-02-04T06:39:44.855Z,2.42
2023-02-04T06:42:11.968Z,2.10
2023-02-04T06:44:39.492Z,1.60
2023-02-04T06:47:06.789Z,1.17
2023-02-04T06:49:34.295Z,1.30
2023-02-04T06:52:01.388Z,2.03
2023-02-04T06:54:28.710Z,1.30
2023-02-04T06:56:55.761Z,1.98
2023-02-04T06:59:25.296Z,1.98
2023-02-04T07:01:52.463Z,1.80
2023-02-04T07:04:20.054Z,2.05
2023-02-04T07:06:47.179Z,1.80
2023-02-04T07:09:14.488Z,2.25
2023-02-04T07:11:41.589Z,1.90
2023-02-04T07:14:10.376Z,1.80
2023-02-04T07:16:37.980Z,1.50
2023-02-04T07:19:05.355Z,1.90
2023-02-04T07:21:32.439Z,1.58
2023-02-04T07:23:59.918Z,1.98
2023-02-04T07:26:27.146Z,1.50
2023-02-04T07:28:54.424Z,2.30
2023-02-04T07:31:21.598Z,1.90
2023-02-04T07:33:49.061Z,2.10
2023-02-04T07:36:16.420Z,2.33
2023-02-04T07:38:43.786Z,2.28
2023-02-04T07:41:10.903Z,1.45
2023-02-04T07:43:38.462Z,1.95
2023-02-04T07:46:05.738Z,2.30
2023-02-04T07:48:33.461Z,1.75
2023-02-04T07:51:00.760Z,2.38
2023-02-04T07:53:29.773Z,1.63
2023-02-04T07:55:57.012Z,1.80
2023-02-04T07:58:24.351Z,2.22
2023-02-04T08:00:51.389Z,2.40
2023-02-04T08:03:18.762Z,2.88
2023-02-04T08:05:45.791Z,2.83
2023-02-04T08:08:13.191Z,1.65
2023-02-04T08:10:40.245Z,2.60
2023-02-04T08:13:07.538Z,2.30
2023-02-04T08:15:34.763Z,2.38
2023-02-04T08:18:02.480Z,2.20
2023-02-04T08:20:30.019Z,1.80
2023-02-04T08:22:57.722Z,2.20
2023-02-04T08:25:25.360Z,2.25
2023-02-04T08:27:52.733Z,1.90
2023-02-04T08:30:19.900Z,1.95
2023-02-04T08:32:47.255Z,2.00
2023-02-04T08:35:14.306Z,2.35
2023-02-04T08:37:41.680Z,2.40
2023-02-04T08:40:09.657Z,2.33
2023-02-04T08:42:37.001Z,1.88
2023-02-04T08:45:04.799Z,2.40
2023-02-04T08:47:32.213Z,1.90
2023-02-04T08:49:59.280Z,2.22
2023-02-04T08:52:26.609Z,1.88
2023-02-04T08:54:53.742Z,2.20
2023-02-04T08:57:21.147Z,1.90
2023-02-04T08:59:48.236Z,1.77
2023-02-04T09:02:15.738Z,2.42
2023-02-04T09:04:42.791Z,1.60
2023-02-04T09:07:10.150Z,2.33
2023-02-04T09:09:37.279Z,2.40
2023-02-04T09:12:04.668Z,2.90
2023-02-04T09:14:31.854Z,2.50
2023-02-04T09:16:59.499Z,2.17
2023-02-04T09:19:27.063Z,2.30
2023-02-04T09:21:55.128Z,1.63
2023-02-04T09:24:23.678Z,2.40
2023-02-04T09:26:51.230Z,2.63
2023-02-04T09:29:18.423Z,2.40
2023-02-04T09:31:46.307Z,2.30
2023-02-04T09:34:13.534Z,2.50
2023-02-04T09:36:40.855Z,2.70
2023-02-04T09:39:11.646Z,2.47
2023-02-04T09:41:40.825Z,2.10
2023-02-04T09:44:16.267Z,1.02
2023-02-04T09:46:53.682Z,1.90
2023-02-04T09:49:21.334Z,1.35
2023-02-04T09:51:50.291Z,1.90
2023-02-04T09:54:21.037Z,1.73
2023-02-04T09:56:50.429Z,1.25
2023-02-04T09:59:23.879Z,2.42
2023-02-04T10:02:05.577Z,1.77
2023-02-04T10:04:32.679Z,2.05
2023-02-04T10:07:00.204Z,1.92
2023-02-04T10:09:28.441Z,1.83
2023-02-04T10:11:55.935Z,1.67
2023-02-04T10:14:24.085Z,1.75
2023-02-04T10:17:01.465Z,1.45
2023-02-04T10:19:30.904Z,2.05
2023-02-04T10:21:58.747Z,1.60
2023-02-04T10:24:30.279Z,1.85
2023-02-04T10:27:10.098Z,1.85
2023-02-04T10:29:38.164Z,1.48
2023-02-04T10:32:05.811Z,1.67
2023-02-04T10:34:39.526Z,2.53
2023-02-04T10:37:20.788Z,2.70
2023-02-04T10:39:49.763Z,1.85
2023-02-04T10:42:23.358Z,1.83
2023-02-04T10:44:51.878Z,0.75
2023-02-04T10:47:26.327Z,1.88
2023-02-04T10:50:00.360Z,1.63
2023-02-04T10:52:45.970Z,3.10
2023-02-04T10:55:24.038Z,1.65
2023-02-04T10:57:54.578Z,1.40
2023-02-04T11:00:25.397Z,1.42
2023-02-04T11:03:02.164Z,1.17
2023-02-04T11:05:34.064Z,1.50
2023-02-04T11:08:03.488Z,1.63
2023-02-04T11:10:34.158Z,1.73
2023-02-04T11:13:04.847Z,1.67
2023-02-04T11:15:50.573Z,1.65
2023-02-04T11:18:21.123Z,1.23
2023-02-04T11:20:51.987Z,1.10
2023-02-04T11:23:29.962Z,1.08
2023-02-04T11:26:17.261Z,1.13
2023-02-04T11:29:38.728Z,1.02
2023-02-04T11:32:37.899Z,1.42
2023-02-04T11:35:25.438Z,1.05
2023-02-04T11:37:54.127Z,1.10
2023-02-04T11:40:34.327Z,1.20
2023-02-04T11:43:10.933Z,0.70
2023-02-04T11:45:41.055Z,1.25
2023-02-04T11:48:21.218Z,1.20
2023-02-04T11:51:03.343Z,1.00
2023-02-04T11:53:33.225Z,1.23
2023-02-04T11:56:03.302Z,1.10
2023-02-04T11:58:32.968Z,1.17
2023-02-04T12:01:00.503Z,1.48
2023-02-04T12:03:34.231Z,1.00
2023-02-04T12:06:02.414Z,0.60
2023-02-04T12:08:36.442Z,0.75
2023-02-04T12:11:27.807Z,1.05
2023-02-04T12:13:58.267Z,1.20
2023-02-04T12:16:26.318Z,0.50
2023-02-04T12:18:53.591Z,1.17
2023-02-04T12:21:21.154Z,0.88
2023-02-04T12:23:48.462Z,0.98
2023-02-04T12:26:16.252Z,0.90
2023-02-04T12:28:43.363Z,0.85
2023-02-04T12:31:10.883Z,0.98
2023-02-04T12:33:38.072Z,1.48
2023-02-04T12:36:06.237Z,0.73
2023-02-04T12:38:33.399Z,1.10
2023-02-04T12:41:00.851Z,1.20
2023-02-04T12:43:28.477Z,1.48
2023-02-04T12:45:55.932Z,1.23
2023-02-04T12:48:23.308Z,1.42
2023-02-04T12:50:50.676Z,1.40
2023-02-04T12:53:17.853Z,1.08
2023-02-04T12:55:45.252Z,0.95
2023-02-04T12:58:12.345Z,0.98
2023-02-04T13:00:40.208Z,2.63
2023-02-04T13:03:07.379Z,2.05
2023-02-04T13:05:36.041Z,1.92
2023-02-04T13:08:03.266Z,1.20
2023-02-04T13:10:30.870Z,1.23
2023-02-04T13:12:58.106Z,1.17
2023-02-04T13:15:25.594Z,1.42
2023-02-04T13:17:52.972Z,1.15
2023-02-04T13:20:20.478Z,1.10
2023-02-04T13:22:47.804Z,0.65
2023-02-04T13:25:17.647Z,0.80
2023-02-04T13:27:44.785Z,0.60
2023-02-04T13:30:15.039Z,0.90
2023-02-04T13:32:43.438Z,2.00
2023-02-04T13:35:10.906Z,1.35
2023-02-04T13:37:38.582Z,1.40
2023-02-04T13:40:07.985Z,1.33
2023-02-04T13:42:35.689Z,2.90
2023-02-04T13:45:03.872Z,1.52
2023-02-04T13:47:31.033Z,1.98
2023-02-04T13:49:58.374Z,2.00
2023-02-04T13:52:25.514Z,2.35
2023-02-04T13:54:54.939Z,2.00
2023-02-04T13:57:22.950Z,2.13
2023-02-04T13:59:50.464Z,1.65
2023-02-04T14:02:17.696Z,1.00
2023-02-04T14:04:45.152Z,1.35
2023-02-04T14:07:12.304Z,1.60
2023-02-04T14:09:39.676Z,2.20
2023-02-04T14:12:06.896Z,1.20
2023-02-04T14:14:34.248Z,1.23
2023-02-04T14:17:01.371Z,1.52
2023-02-04T14:19:28.849Z,2.03
2023-02-04T14:21:56.189Z,2.40
2023-02-04T14:24:23.556Z,2.47
2023-02-04T14:26:50.974Z,2.15
2023-02-04T14:29:18.452Z,2.47
2023-02-04T14:31:45.910Z,2.53
2023-02-04T14:34:13.370Z,1.67
2023-02-04T14:36:41.288Z,2.25
2023-02-04T14:39:08.708Z,3.03
2023-02-04T14:41:35.854Z,2.85
2023-02-04T14:44:03.439Z,3.28
2023-02-04T14:46:30.600Z,2.17
2023-02-04T14:48:58.386Z,1.67
2023-02-04T14:51:25.520Z,2.72
2023-02-04T14:53:52.920Z,2.55
2023-02-04T14:56:20.468Z,3.33
2023-02-04T14:58:47.820Z,2.92
2023-02-04T15:01:15.138Z,3.25
2023-02-04T15:03:42.559Z,2.63
2023-02-04T15:06:09.617Z,2.75
2023-02-04T15:08:37.058Z,2.47
2023-02-04T15:11:04.324Z,2.70
2023-02-04T15:13:31.730Z,2.83
2023-02-04T15:15:58.886Z,3.30
2023-02-04T15:18:26.507Z,3.58
2023-02-04T15:20:53.692Z,3.28
2023-02-04T15:23:21.130Z,2.92
2023-02-04T15:25:48.402Z,2.75
2023-02-04T15:28:15.964Z,3.38
2023-02-04T15:30:43.398Z,4.00
2023-02-04T15:33:12.919Z,2.83
2023-02-04T15:35:40.097Z,2.70
2023-02-04T15:38:07.844Z,2.00
2023-02-04T15:40:35.516Z,2.80
2023-02-04T15:43:02.946Z,3.20
2023-02-04T15:45:30.210Z,3.25
2023-02-04T15:47:57.691Z,3.20
2023-02-04T15:50:24.778Z,3.28
2023-02-04T15:52:52.224Z,3.70
2023-02-04T15:55:19.372Z,3.40
2023-02-04T15:57:46.673Z,4.07
2023-02-04T16:00:14.948Z,4.53
2023-02-04T16:02:42.509Z,4.32
2023-02-04T16:05:10.000Z,4.28
2023-02-04T16:07:37.526Z,3.50
2023-02-04T16:10:05.225Z,3.33
2023-02-04T16:12:32.583Z,3.03
2023-02-04T16:14:59.807Z,2.90
2023-02-04T16:17:27.211Z,3.28
2023-02-04T16:19:54.456Z,2.90
2023-02-04T16:22:21.895Z,2.90
2023-02-04T16:24:49.654Z,2.97
2023-02-04T16:27:17.226Z,1.58
2023-02-04T16:29:44.504Z,2.42
2023-02-04T16:32:11.899Z,2.60
2023-02-04T16:34:39.072Z,2.72
2023-02-04T16:37:06.665Z,2.60
2023-02-04T16:39:34.045Z,2.38
2023-02-04T16:42:01.516Z,3.13
2023-02-04T16:44:28.870Z,2.95
2023-02-04T16:46:56.184Z,3.60
2023-02-04T16:49:23.335Z,3.63
2023-02-04T16:51:50.884Z,3.75
2023-02-04T16:54:18.045Z,4.15
2023-02-04T16:56:45.505Z,4.18
2023-02-04T16:59:12.675Z,4.18
2023-02-04T17:01:40.131Z,4.13
2023-02-04T17:04:07.540Z,4.05
2023-02-04T17:06:36.022Z,3.67
2023-02-04T17:09:04.140Z,3.65
2023-02-04T17:11:31.947Z,4.60
2023-02-04T17:14:03.484Z,4.57
2023-02-04T17:16:32.208Z,4.50
2023-02-04T17:18:59.486Z,4.45
2023-02-04T17:21:29.748Z,4.55
2023-02-04T17:24:04.226Z,4.32
2023-02-04T17:26:37.413Z,4.68
2023-02-04T17:29:21.796Z,4.38
2023-02-04T17:31:49.548Z,4.05
2023-02-04T17:34:16.700Z,4.70
2023-02-04T17:36:44.140Z,4.38
2023-02-04T17:39:11.455Z,3.97
2023-02-04T17:41:38.893Z,3.80
2023-02-04T17:44:06.385Z,3.83
2023-02-04T17:46:34.534Z,4.03
2023-02-04T17:49:02.635Z,4.30
2023-02-04T17:51:30.197Z,4.03
2023-02-04T17:53:57.368Z,3.92
2023-02-04T17:56:25.937Z,4.35
2023-02-04T17:58:56.155Z,4.53
2023-02-04T18:01:25.245Z,4.68
2023-02-04T18:03:52.736Z,4.53
2023-02-04T18:06:27.113Z,4.72
2023-02-04T18:09:03.334Z,4.60
2023-02-04T18:11:39.415Z,5.85
2023-02-04T18:14:26.072Z,6.13
2023-02-04T18:16:59.542Z,6.43
2023-02-04T18:19:31.659Z,6.57
2023-02-04T18:21:59.497Z,7.10
2023-02-04T18:24:39.574Z,7.07
2023-02-04T18:27:28.932Z,5.90
2023-02-04T18:29:58.155Z,6.60
2023-02-04T18:32:36.562Z,7.03
2023-02-04T18:35:32.504Z,6.40
2023-02-04T18:38:00.766Z,5.22
2023-02-04T18:40:32.522Z,6.20
2023-02-04T18:43:27.364Z,6.22
2023-02-04T18:45:57.326Z,7.25
2023-02-04T18:48:24.866Z,6.82
2023-02-04T18:50:54.436Z,6.32
2023-02-04T18:53:28.333Z,6.60
2023-02-04T18:56:02.320Z,6.53
2023-02-04T18:58:33.939Z,6.65
2023-02-04T19:01:02.448Z,6.70
2023-02-04T19:03:42.182Z,6.07
2023-02-04T19:06:43.572Z,5.70
2023-02-04T19:09:14.570Z,6.03
2023-02-04T19:11:51.921Z,4.60
2023-02-04T19:14:31.705Z,5.28
2023-02-04T19:17:14.466Z,4.97
2023-02-04T19:20:06.049Z,5.13
2023-02-04T19:22:56.924Z,4.60
2023-02-04T19:25:37.708Z,4.25
2023-02-04T19:28:27.182Z,2.65
2023-02-04T19:31:03.158Z,2.35
2023-02-04T19:33:42.056Z,2.17
2023-02-04T19:36:35.707Z,1.90
2023-02-04T19:39:21.119Z,2.78
2023-02-04T19:41:51.320Z,2.75
2023-02-04T19:44:33.464Z,2.58
2023-02-04T19:47:25.853Z,2.75
2023-02-04T19:50:13.547Z,3.00
2023-02-04T19:53:00.400Z,2.30
2023-02-04T19:55:44.167Z,2.20
2023-02-04T19:58:27.131Z,2.97
2023-02-04T20:01:04.026Z,2.38
2023-02-04T20:03:44.730Z,3.05
2023-02-04T20:06:36.288Z,2.50
2023-02-04T20:09:26.514Z,3.22
2023-02-04T20:11:57.507Z,1.95
2023-02-04T20:14:43.887Z,1.58
2023-02-04T20:17:39.630Z,2.78
2023-02-04T20:20:26.005Z,2.72
2023-02-04T20:22:57.144Z,2.88
2023-02-04T20:25:48.163Z,2.70
2023-02-04T20:28:21.636Z,2.55
2023-02-04T20:30:51.772Z,1.90
2023-02-04T20:33:48.972Z,2.20
2023-02-04T20:36:42.078Z,2.40
2023-02-04T20:39:09.867Z,2.35
2023-02-04T20:41:38.628Z,2.75
2023-02-04T20:44:39.244Z,2.67
2023-02-04T20:47:25.689Z,2.30
2023-02-04T20:49:58.772Z,2.60
2023-02-04T20:52:41.444Z,2.25
2023-02-04T20:55:32.421Z,2.60
2023-02-04T20:58:15.367Z,2.70
2023-02-04T21:00:44.758Z,2.05
2023-02-04T21:03:51.252Z,2.75
2023-02-04T21:06:34.452Z,2.35
2023-02-04T21:09:04.191Z,2.67
2023-02-04T21:11:31.399Z,2.90
2023-02-04T21:13:59.059Z,3.20
2023-02-04T21:16:26.239Z,2.55
2023-02-04T21:18:54.680Z,2.55
2023-02-04T21:21:24.341Z,2.08
2023-02-04T21:23:51.717Z,2.45
2023-02-04T21:26:19.311Z,2.75
2023-02-04T21:28:46.703Z,2.75
2023-02-04T21:31:14.022Z,2.47
2023-02-04T21:33:41.472Z,2.58
2023-02-04T21:36:09.288Z,2.30
2023-02-04T21:38:36.705Z,2.13
2023-02-04T21:41:03.791Z,2.58
2023-02-04T21:43:31.233Z,2.45
2023-02-04T21:45:58.313Z,3.05
2023-02-04T21:48:25.861Z,2.80
2023-02-04T21:50:53.962Z,3.05
2023-02-04T21:53:21.440Z,2.80
2023-02-04T21:55:48.586Z,2.30
2023-02-04T21:58:15.967Z,2.60
2023-02-04T22:00:43.111Z,2.75
2023-02-04T22:03:15.599Z,3.10
2023-02-04T22:05:46.411Z,2.78
2023-02-04T22:08:14.099Z,3.17
2023-02-04T22:10:41.438Z,3.05
2023-02-04T22:13:09.162Z,2.47
2023-02-04T22:15:36.296Z,2.50
2023-02-04T22:18:04.184Z,3.08
2023-02-04T22:20:31.498Z,1.42
2023-02-04T22:22:58.935Z,1.40
2023-02-04T22:25:26.058Z,1.15
2023-02-04T22:27:53.509Z,1.75
2023-02-04T22:30:20.679Z,1.30
2023-02-04T22:32:48.357Z,1.25
2023-02-04T22:35:16.288Z,1.10
2023-02-04T22:37:43.825Z,1.13
2023-02-04T22:40:12.910Z,1.13
2023-02-04T22:42:40.483Z,0.88
2023-02-04T22:45:10.260Z,0.90
2023-02-04T22:47:37.998Z,0.50
2023-02-04T22:50:05.732Z,0.70
2023-02-04T22:52:33.136Z,0.80
2023-02-04T22:55:00.342Z,1.00
2023-02-04T22:57:29.595Z,0.90
2023-02-04T22:59:56.630Z,0.82
2023-02-04T23:02:24.015Z,0.90
2023-02-04T23:04:51.140Z,1.20
2023-02-04T23:07:18.932Z,1.00
2023-02-04T23:09:46.221Z,1.10
2023-02-04T23:12:13.612Z,1.10
2023-02-04T23:14:43.511Z,1.33
2023-02-04T23:17:11.835Z,1.45
2023-02-04T23:19:39.243Z,1.30
2023-02-04T23:22:09.224Z,1.20
2023-02-04T23:24:37.247Z,0.98
2023-02-04T23:27:05.731Z,1.20
2023-02-04T23:29:35.175Z,1.30
2023-02-04T23:32:03.887Z,1.60
2023-02-04T23:34:31.754Z,0.90
2023-02-04T23:36:59.161Z,1.00
2023-02-04T23:39:26.492Z,1.25
2023-02-04T23:41:53.973Z,0.90
2023-02-04T23:44:21.297Z,1.00
2023-02-04T23:46:48.909Z,1.00
2023-02-04T23:49:16.120Z,1.00
2023-02-04T23:51:43.690Z,0.80
2023-02-04T23:54:10.946Z,0.80
2023-02-04T23:56:38.461Z,1.20
2023-02-04T23:59:06.500Z,0.93
